Time;durP1;ratioP1;P1;durP2;ratioP2;P2;SDS_P1;SDS_P2;PMS_P1;PMS_P2;Temp;Humidity;BMP_temperature;BMP_pressure;BME280_temperature;BME280_humidity;BME280_pressure;Samples;Min_cycle;Max_cycle;Signal;HPM_P1;HPM_P2
2022/06/05 00:00:08;;;;;;;11.23;10.05;;;16.00;99.90;;;;;;5076767;28;20020;-70
2022/06/05 00:03:08;;;;;;;11.27;9.85;;;16.00;99.90;;;;;;5094831;28;20474;-70
2022/06/05 00:06:13;;;;;;;12.00;9.60;;;16.00;99.90;;;;;;5094732;28;20020;-69
2022/06/05 00:09:04;;;;;;;13.30;9.73;;;16.00;99.90;;;;;;5093321;28;20030;-69
2022/06/05 00:11:47;;;;;;;12.10;9.73;;;16.00;99.90;;;;;;5094518;28;20132;-69
2022/06/05 00:14:14;;;;;;;10.50;9.50;;;16.00;99.90;;;;;;5094622;28;20016;-69
2022/06/05 00:16:39;;;;;;;10.52;9.38;;;15.90;99.90;;;;;;5093160;28;20032;-69
2022/06/05 00:19:05;;;;;;;13.75;10.15;;;15.90;99.90;;;;;;5094572;28;20024;-69
2022/06/05 00:21:31;;;;;;;12.52;10.07;;;15.80;99.90;;;;;;5094446;28;20016;-70
2022/06/05 00:23:56;;;;;;;11.82;9.63;;;15.80;99.90;;;;;;5094411;28;20028;-70
2022/06/05 00:26:33;;;;;;;13.23;9.93;;;15.70;99.90;;;;;;5094361;28;20478;-69
2022/06/05 00:29:22;;;;;;;10.68;9.20;;;15.60;99.90;;;;;;5093167;28;20024;-70
2022/06/05 00:32:11;;;;;;;11.93;9.63;;;15.60;99.90;;;;;;5094199;28;20038;-69
2022/06/05 00:34:37;;;;;;;11.07;9.35;;;15.60;99.90;;;;;;5092940;28;20111;-69
2022/06/05 00:37:36;;;;;;;10.15;8.85;;;15.60;99.90;;;;;;5093862;28;20486;-69
2022/06/05 00:40:42;;;;;;;11.85;9.95;;;15.60;99.90;;;;;;5094006;28;20024;-69
2022/06/05 00:43:11;;;;;;;10.18;9.18;;;15.50;99.90;;;;;;5093902;28;20035;-69
2022/06/05 00:45:39;;;;;;;10.52;9.43;;;15.40;99.90;;;;;;5092264;28;20056;-69
2022/06/05 00:48:06;;;;;;;10.90;9.80;;;15.30;99.90;;;;;;5092858;28;20077;-69
2022/06/05 00:50:31;;;;;;;10.25;9.27;;;15.30;99.90;;;;;;5092616;28;20027;-70
2022/06/05 00:53:00;;;;;;;9.88;8.80;;;15.30;99.90;;;;;;5092606;28;20543;-69
2022/06/05 00:55:31;;;;;;;10.63;9.48;;;15.20;99.90;;;;;;5093875;28;20428;-69
2022/06/05 00:57:57;;;;;;;12.18;9.57;;;15.20;99.90;;;;;;5092733;28;20103;-69
2022/06/05 01:00:28;;;;;;;11.45;9.88;;;15.20;99.90;;;;;;5093739;28;20069;-69
2022/06/05 01:02:56;;;;;;;11.88;10.05;;;15.30;99.90;;;;;;5093755;28;20023;-70
2022/06/05 01:05:25;;;;;;;11.27;9.70;;;15.30;99.90;;;;;;5092515;28;20390;-70
2022/06/05 01:07:51;;;;;;;11.18;10.00;;;15.30;99.90;;;;;;5092489;28;20390;-69
2022/06/05 01:10:20;;;;;;;12.70;10.05;;;15.30;99.90;;;;;;5093623;28;20074;-69
2022/06/05 01:13:13;;;;;;;11.48;9.85;;;15.30;99.90;;;;;;5093630;28;20390;-69
2022/06/05 01:16:19;;;;;;;14.52;10.73;;;15.30;99.90;;;;;;5093418;28;20505;-70
2022/06/05 01:18:59;;;;;;;13.35;10.65;;;15.30;99.90;;;;;;5093270;28;20034;-70
2022/06/05 01:21:51;;;;;;;12.43;10.43;;;15.20;99.90;;;;;;5092375;28;20119;-70
2022/06/05 01:24:46;;;;;;;11.13;9.93;;;15.20;99.90;;;;;;5093409;28;20104;-69
2022/06/05 01:27:16;;;;;;;13.63;10.65;;;15.20;99.90;;;;;;5093301;28;20019;-69
2022/06/05 01:29:47;;;;;;;12.63;10.48;;;15.20;99.90;;;;;;5093449;28;20382;-69
2022/06/05 01:32:20;;;;;;;13.88;12.05;;;15.20;99.90;;;;;;5092185;28;20027;-69
2022/06/05 01:34:53;;;;;;;12.48;10.30;;;15.20;99.90;;;;;;5093309;28;20024;-69
2022/06/05 01:37:29;;;;;;;13.23;11.38;;;15.10;99.90;;;;;;5074945;28;20040;-69
2022/06/05 01:40:04;;;;;;;11.55;10.45;;;15.10;99.90;;;;;;5092063;28;20032;-69
2022/06/05 01:42:44;;;;;;;14.93;11.10;;;15.10;99.90;;;;;;5093328;28;20525;-70
2022/06/05 01:45:22;;;;;;;11.90;10.70;;;15.00;99.90;;;;;;5092160;28;20024;-69
2022/06/05 01:47:53;;;;;;;13.75;11.35;;;15.00;99.90;;;;;;5093241;28;20020;-69
2022/06/05 01:50:28;;;;;;;15.25;11.13;;;15.00;99.90;;;;;;5093123;28;20024;-70
2022/06/05 01:53:06;;;;;;;14.32;11.18;;;15.00;99.90;;;;;;5091981;28;20024;-70
2022/06/05 01:55:53;;;;;;;13.07;11.68;;;15.00;99.90;;;;;;5092066;28;20385;-69
2022/06/05 01:58:25;;;;;;;16.92;11.95;;;14.90;99.90;;;;;;5094249;28;20562;-69
2022/06/05 02:00:54;;;;;;;14.15;11.60;;;15.00;99.90;;;;;;5095987;28;20505;-69
2022/06/05 02:03:27;;;;;;;13.55;12.13;;;14.90;99.90;;;;;;5079035;28;20028;-70
2022/06/05 02:06:00;;;;;;;13.15;11.75;;;14.80;99.90;;;;;;5097023;28;20058;-69
2022/06/05 02:08:39;;;;;;;13.05;10.88;;;14.80;99.90;;;;;;5078485;28;20547;-69
2022/06/05 02:11:26;;;;;;;12.93;11.63;;;14.70;99.90;;;;;;5095769;28;20024;-69
2022/06/05 02:13:56;;;;;;;13.40;12.10;;;14.70;99.90;;;;;;5095771;28;20389;-69
2022/06/05 02:16:24;;;;;;;15.15;11.35;;;14.70;99.90;;;;;;5096896;28;20493;-70
2022/06/05 02:18:50;;;;;;;15.43;12.35;;;14.70;99.90;;;;;;5095576;28;20393;-69
2022/06/05 02:21:16;;;;;;;13.50;11.65;;;14.70;99.90;;;;;;5095542;28;20020;-69
2022/06/05 02:23:42;;;;;;;14.50;11.90;;;14.70;99.90;;;;;;5078616;28;20075;-70
2022/06/05 02:26:09;;;;;;;12.48;11.18;;;14.70;99.90;;;;;;5095580;28;20069;-69
2022/06/05 02:28:37;;;;;;;13.65;12.13;;;14.70;99.90;;;;;;5096721;28;20064;-69
2022/06/05 02:34:22;;;;;;;13.73;12.13;;;14.70;99.90;;;;;;5111166;27;20376;-69
2022/06/05 02:42:36;;;;;;;13.20;11.70;;;14.60;99.90;;;;;;5070663;28;20379;-70
2022/06/05 02:45:34;;;;;;;16.10;12.57;;;14.60;99.90;;;;;;5070585;28;20487;-70
2022/06/05 02:48:14;;;;;;;13.02;11.63;;;14.60;99.90;;;;;;5070405;28;20029;-70
2022/06/05 02:50:51;;;;;;;13.65;12.25;;;14.70;99.90;;;;;;5070454;28;20474;-70
2022/06/05 02:53:17;;;;;;;12.02;10.80;;;14.70;99.90;;;;;;5069141;28;20406;-69
2022/06/05 02:55:43;;;;;;;11.65;10.55;;;14.70;99.90;;;;;;5070553;28;20024;-69
2022/06/05 02:58:10;;;;;;;11.98;10.77;;;14.70;99.90;;;;;;5069120;28;20032;-70
2022/06/05 03:00:38;;;;;;;14.43;11.10;;;14.70;99.90;;;;;;5069281;28;20078;-70
2022/06/05 03:03:35;;;;;;;14.43;11.50;;;14.80;99.90;;;;;;5070163;28;20368;-70
2022/06/05 03:05:50;;;;;;;17.63;11.95;;;14.80;99.90;;;;;;5069954;28;20056;-70
2022/06/05 03:08:18;;;;;;;14.82;12.02;;;14.80;99.90;;;;;;5052135;28;20053;-69
2022/06/05 03:10:45;;;;;;;15.40;12.50;;;14.80;99.90;;;;;;5068872;28;20483;-70
2022/06/05 03:13:12;;;;;;;13.38;11.98;;;14.70;99.90;;;;;;5069986;28;20021;-70
2022/06/05 03:15:38;;;;;;;14.65;12.50;;;14.70;99.90;;;;;;5052241;28;20108;-70
2022/06/05 03:18:04;;;;;;;14.18;12.20;;;14.70;99.90;;;;;;5068687;28;20112;-70
2022/06/05 03:20:30;;;;;;;14.90;11.98;;;14.70;99.90;;;;;;5070019;28;20033;-70
2022/06/05 03:22:56;;;;;;;13.23;11.82;;;14.70;99.90;;;;;;5069801;28;20502;-70
2022/06/05 03:25:24;;;;;;;13.27;11.88;;;14.70;99.90;;;;;;5069711;28;20025;-70
2022/06/05 03:27:49;;;;;;;13.20;11.63;;;14.70;99.90;;;;;;5069665;28;20017;-70
2022/06/05 03:30:16;;;;;;;12.55;10.63;;;14.70;99.90;;;;;;5051747;28;20509;-70
2022/06/05 03:32:43;;;;;;;12.43;11.23;;;14.80;99.90;;;;;;5068396;28;20025;-70
2022/06/05 03:35:09;;;;;;;12.27;10.45;;;14.80;99.90;;;;;;5069590;28;20450;-70
2022/06/05 03:37:36;;;;;;;12.43;11.13;;;14.90;99.90;;;;;;5068355;28;20052;-70
2022/06/05 03:40:02;;;;;;;12.07;10.85;;;14.90;99.90;;;;;;5069180;28;20070;-70
2022/06/05 03:42:28;;;;;;;14.05;10.65;;;15.00;99.90;;;;;;5051668;28;20441;-70
2022/06/05 03:44:53;;;;;;;15.30;10.13;;;15.10;99.90;;;;;;5068099;28;20025;-70
2022/06/05 03:47:19;;;;;;;12.90;10.50;;;15.10;99.90;;;;;;5069270;28;20483;-70
2022/06/05 03:49:45;;;;;;;11.43;9.85;;;15.20;99.90;;;;;;5067987;28;20092;-70
2022/06/05 03:52:11;;;;;;;11.20;9.98;;;15.40;99.90;;;;;;5064016;28;20025;-70
2022/06/05 03:54:38;;;;;;;11.13;9.55;;;15.40;99.90;;;;;;5055937;28;20024;-70
2022/06/05 03:57:06;;;;;;;11.70;9.60;;;15.60;99.90;;;;;;5054672;28;20021;-70
2022/06/05 03:59:34;;;;;;;12.70;10.00;;;15.60;99.90;;;;;;5054672;28;20480;-69
2022/06/05 04:02:00;;;;;;;12.15;9.82;;;15.70;99.90;;;;;;5055740;28;20495;-69
2022/06/05 04:04:26;;;;;;;11.57;9.75;;;15.80;99.90;;;;;;5055779;28;20048;-69
2022/06/05 04:06:52;;;;;;;11.27;9.63;;;15.90;99.90;;;;;;5054554;28;20017;-69
2022/06/05 04:09:17;;;;;;;10.80;9.23;;;16.00;99.90;;;;;;5055670;28;20102;-69
2022/06/05 04:11:43;;;;;;;10.27;9.02;;;16.20;99.90;;;;;;5054336;28;20025;-70
2022/06/05 04:14:09;;;;;;;9.93;8.93;;;16.30;99.90;;;;;;5055574;28;20544;-69
2022/06/05 04:16:38;;;;;;;9.70;8.00;;;16.50;99.90;;;;;;5055614;28;20071;-70
2022/06/05 04:19:04;;;;;;;9.85;8.05;;;16.70;99.90;;;;;;5037990;28;20036;-70
2022/06/05 04:21:33;;;;;;;11.18;7.85;;;16.80;99.90;;;;;;5054250;28;20109;-69
2022/06/05 04:23:59;;;;;;;7.97;7.18;;;17.00;99.90;;;;;;5055432;28;20032;-69
2022/06/05 04:26:28;;;;;;;9.05;8.15;;;17.00;99.90;;;;;;5054215;28;20364;-69
2022/06/05 04:28:54;;;;;;;8.43;7.63;;;17.10;99.90;;;;;;5055340;28;20036;-69
2022/06/05 04:31:38;;;;;;;9.75;7.55;;;17.20;99.90;;;;;;5054140;28;20029;-69
2022/06/05 04:34:07;;;;;;;8.32;7.53;;;17.30;99.90;;;;;;5037296;28;20028;-70
2022/06/05 04:36:33;;;;;;;7.35;6.65;;;17.50;99.90;;;;;;5053822;28;20029;-70
2022/06/05 04:38:59;;;;;;;9.02;7.20;;;17.80;99.90;;;;;;5053905;28;20506;-70
2022/06/05 04:41:25;;;;;;;9.25;6.75;;;18.10;99.90;;;;;;5054814;28;20060;-69
2022/06/05 04:43:52;;;;;;;7.82;6.47;;;18.20;99.90;;;;;;5053719;28;20134;-70
2022/06/05 04:46:20;;;;;;;8.23;6.95;;;18.30;99.90;;;;;;5053713;28;20020;-70
2022/06/05 04:48:46;;;;;;;7.43;6.72;;;18.30;99.90;;;;;;5053824;28;20021;-70
2022/06/05 04:51:13;;;;;;;9.50;7.45;;;18.30;99.90;;;;;;5054916;28;20394;-71
2022/06/05 04:53:39;;;;;;;7.82;6.90;;;18.20;99.90;;;;;;5053491;28;20430;-70
2022/06/05 04:56:08;;;;;;;9.50;6.88;;;18.30;99.90;;;;;;5054817;28;20032;-70
2022/06/05 04:58:34;;;;;;;7.60;6.35;;;18.20;99.90;;;;;;5054780;28;20494;-70
2022/06/05 05:00:59;;;;;;;8.73;6.30;;;18.30;99.90;;;;;;5053576;28;20029;-70
2022/06/05 05:03:25;;;;;;;6.88;6.28;;;18.50;99.90;;;;;;5052881;28;20475;-70
2022/06/05 05:05:51;;;;;;;7.95;6.60;;;18.50;99.90;;;;;;5052880;28;20487;-70
2022/06/05 05:08:17;;;;;;;10.02;6.70;;;18.50;99.90;;;;;;5053361;28;20116;-71
2022/06/05 05:10:43;;;;;;;8.38;6.53;;;18.30;99.90;;;;;;5054511;28;20029;-71
2022/06/05 05:13:08;;;;;;;9.43;6.80;;;18.30;99.90;;;;;;5036488;28;20021;-70
2022/06/05 05:15:34;;;;;;;7.05;6.35;;;18.30;99.90;;;;;;5054442;28;20036;-70
2022/06/05 05:18:00;;;;;;;8.20;6.78;;;18.40;99.90;;;;;;5052900;28;20036;-69
2022/06/05 05:20:26;;;;;;;8.30;6.80;;;18.30;99.90;;;;;;5054246;28;20025;-70
2022/06/05 05:22:52;;;;;;;9.40;7.40;;;18.50;99.90;;;;;;5054203;28;20020;-70
2022/06/05 05:25:18;;;;;;;8.45;6.45;;;18.40;99.90;;;;;;5052931;28;20046;-69
2022/06/05 05:27:44;;;;;;;7.25;6.28;;;18.50;99.90;;;;;;5054182;28;20070;-69
2022/06/05 05:30:10;;;;;;;6.85;6.25;;;18.60;99.90;;;;;;5054141;28;20078;-69
2022/06/05 05:32:36;;;;;;;6.40;5.80;;;18.70;99.90;;;;;;5052926;28;20031;-70
2022/06/05 05:35:03;;;;;;;7.50;6.80;;;18.70;99.90;;;;;;5052745;28;20025;-70
2022/06/05 05:37:29;;;;;;;7.38;6.35;;;18.80;99.90;;;;;;5054044;28;20029;-70
2022/06/05 05:42:40;;;;;;;9.07;6.57;;;19.00;99.90;;;;;;5053752;28;20423;-70
2022/06/05 05:45:06;;;;;;;8.43;6.65;;;19.00;99.90;;;;;;5052531;28;20021;-70
2022/06/05 05:47:33;;;;;;;7.43;6.70;;;19.00;99.90;;;;;;5053799;28;20021;-70
2022/06/05 05:50:07;;;;;;;8.30;6.60;;;19.00;99.90;;;;;;5053835;28;20045;-69
2022/06/05 05:52:32;;;;;;;8.10;6.43;;;19.00;99.90;;;;;;5053671;28;20021;-70
2022/06/05 05:54:59;;;;;;;6.60;6.00;;;19.00;99.90;;;;;;5053804;28;20021;-70
2022/06/05 05:57:24;;;;;;;7.57;6.40;;;19.00;99.90;;;;;;5053565;28;20051;-70
2022/06/05 05:59:50;;;;;;;6.90;6.25;;;19.10;99.90;;;;;;5053623;28;20052;-70
2022/06/05 06:02:23;;;;;;;8.55;6.82;;;19.00;99.90;;;;;;5053489;28;20025;-70
2022/06/05 06:04:50;;;;;;;;;;;18.90;99.90;;;;;;5052705;28;20017;-70
2022/06/05 06:07:16;;;;;;;7.50;6.80;;;19.00;99.90;;;;;;5053441;28;19999;-70
2022/06/05 06:09:42;;;;;;;7.18;6.47;;;18.90;99.90;;;;;;5052268;28;20082;-71
2022/06/05 06:12:10;;;;;;;10.07;6.78;;;18.90;99.90;;;;;;5052213;28;20044;-70
2022/06/05 06:14:37;;;;;;;7.55;6.13;;;19.00;99.90;;;;;;5052209;28;20099;-69
2022/06/05 06:17:03;;;;;;;8.65;6.63;;;19.20;99.90;;;;;;5035468;28;20055;-70
2022/06/05 06:19:29;;;;;;;8.60;6.72;;;19.30;99.90;;;;;;5052204;28;20510;-70
2022/06/05 06:21:55;;;;;;;7.15;6.55;;;19.40;99.90;;;;;;5035367;28;20490;-69
2022/06/05 06:24:21;;;;;;;7.25;6.57;;;19.50;99.90;;;;;;5053229;28;20035;-70
2022/06/05 06:26:46;;;;;;;6.88;6.25;;;19.80;99.90;;;;;;5053166;28;20025;-70
2022/06/05 06:29:12;;;;;;;7.30;6.60;;;19.70;99.90;;;;;;5053151;28;20021;-69
2022/06/05 06:31:38;;;;;;;9.80;6.40;;;19.70;99.90;;;;;;5053136;28;20483;-69
2022/06/05 06:34:06;;;;;;;9.23;6.50;;;20.00;99.90;;;;;;5051942;28;20083;-70
2022/06/05 06:36:33;;;;;;;8.45;6.00;;;20.40;99.90;;;;;;5051763;28;20071;-69
2022/06/05 06:38:59;;;;;;;6.28;5.65;;;20.60;99.90;;;;;;5051902;28;20067;-70
2022/06/05 06:41:25;;;;;;;9.32;6.13;;;21.10;99.90;;;;;;5051583;28;20044;-69
2022/06/05 06:43:51;;;;;;;6.97;6.30;;;21.20;99.90;;;;;;5053033;28;20441;-69
2022/06/05 06:46:18;;;;;;;7.10;6.40;;;21.60;99.90;;;;;;5051844;28;20021;-69
2022/06/05 06:48:45;;;;;;;8.07;6.65;;;21.80;99.90;;;;;;5051833;28;20491;-70
2022/06/05 06:51:11;;;;;;;8.98;6.57;;;21.80;99.90;;;;;;5053029;28;20495;-70
2022/06/05 06:53:39;;;;;;;6.88;6.22;;;22.60;99.90;;;;;;5053006;28;20029;-69
2022/06/05 06:56:12;;;;;;;7.43;6.63;;;22.20;99.90;;;;;;5035272;28;20029;-70
2022/06/05 06:58:38;;;;;;;;;;;22.50;99.90;;;;;;5052187;28;20029;-69
2022/06/05 07:01:04;;;;;;;7.82;6.97;;;22.80;99.90;;;;;;5052840;28;19913;-70
2022/06/05 07:03:30;;;;;;;7.80;6.95;;;22.80;99.90;;;;;;5035050;28;20029;-70
2022/06/05 07:05:56;;;;;;;7.45;6.43;;;22.60;99.90;;;;;;5052774;28;20056;-70
2022/06/05 07:08:22;;;;;;;8.07;7.05;;;22.40;99.90;;;;;;5051436;28;20533;-69
2022/06/05 07:10:47;;;;;;;8.45;6.70;;;22.00;99.90;;;;;;5051613;28;20025;-69
2022/06/05 07:13:13;;;;;;;8.65;7.85;;;21.60;99.90;;;;;;5052687;28;20033;-70
2022/06/05 07:15:39;;;;;;;9.07;8.15;;;21.70;99.90;;;;;;5052960;28;20039;-69
2022/06/05 07:18:07;;;;;;;9.93;7.65;;;21.30;99.90;;;;;;5052798;28;20533;-69
2022/06/05 07:20:34;;;;;;;9.15;7.53;;;21.20;99.90;;;;;;5052653;28;20494;-70
2022/06/05 07:23:01;;;;;;;8.82;7.93;;;21.00;99.90;;;;;;5051299;28;20025;-70
2022/06/05 07:25:27;;;;;;;8.60;7.80;;;20.80;99.90;;;;;;5051411;28;20395;-71
2022/06/05 07:27:52;;;;;;;9.60;8.45;;;20.60;99.90;;;;;;5054282;28;20021;-70
2022/06/05 07:30:18;;;;;;;9.10;8.13;;;20.60;99.90;;;;;;5055253;28;20020;-70
2022/06/05 07:32:44;;;;;;;8.43;7.60;;;20.70;99.90;;;;;;5056593;28;20471;-70
2022/06/05 07:35:12;;;;;;;8.98;8.20;;;20.80;99.90;;;;;;5055197;28;20100;-69
2022/06/05 07:37:38;;;;;;;8.95;8.05;;;20.90;99.90;;;;;;5056241;28;20013;-69
2022/06/05 07:40:04;;;;;;;9.15;8.13;;;20.90;99.90;;;;;;5055923;28;20390;-69
2022/06/05 07:42:30;;;;;;;9.65;8.63;;;21.00;99.90;;;;;;5056265;28;20033;-69
2022/06/05 07:44:55;;;;;;;9.27;8.32;;;21.10;99.90;;;;;;5054969;28;20391;-69
2022/06/05 07:47:21;;;;;;;8.75;7.95;;;21.30;99.90;;;;;;5056041;28;20391;-70
2022/06/05 07:49:46;;;;;;;9.65;8.50;;;21.50;99.90;;;;;;5038228;28;20448;-69
2022/06/05 07:54:59;;;;;;;9.57;8.70;;;21.80;99.90;;;;;;5054756;28;20483;-70
2022/06/05 07:57:25;;;;;;;9.18;8.27;;;22.20;99.90;;;;;;5055868;28;20028;-69
2022/06/05 07:59:50;;;;;;;8.93;8.13;;;22.50;99.90;;;;;;5056086;28;20493;-69
2022/06/05 08:02:21;;;;;;;9.48;7.68;;;23.10;99.90;;;;;;5037868;28;20107;-69
2022/06/05 08:04:48;;;;;;;9.05;8.20;;;23.70;99.90;;;;;;5055831;28;20056;-69
2022/06/05 08:07:17;;;;;;;8.95;8.05;;;23.60;99.90;;;;;;5054527;28;20025;-70
2022/06/05 08:09:43;;;;;;;8.40;7.70;;;23.40;99.90;;;;;;5055650;28;20024;-70
2022/06/05 08:12:11;;;;;;;8.68;7.85;;;23.70;99.90;;;;;;5055608;28;20017;-69
2022/06/05 08:14:37;;;;;;;8.23;7.55;;;23.80;99.90;;;;;;5055627;28;20020;-70
2022/06/05 08:17:07;;;;;;;9.10;8.18;;;23.90;99.90;;;;;;5055600;28;20033;-69
2022/06/05 08:19:32;;;;;;;8.13;7.32;;;24.20;99.90;;;;;;5055470;28;20047;-70
2022/06/05 08:21:58;;;;;;;8.82;7.53;;;24.20;99.90;;;;;;5054176;28;20037;-70
2022/06/05 08:24:24;;;;;;;9.02;8.02;;;24.20;99.90;;;;;;5055367;28;20032;-69
2022/06/05 08:26:51;;;;;;;9.15;8.20;;;24.20;99.90;;;;;;5055324;28;20025;-70
2022/06/05 08:29:18;;;;;;;10.52;8.88;;;23.60;99.90;;;;;;5055331;28;20013;-69
2022/06/05 08:31:44;;;;;;;8.60;7.80;;;22.90;99.90;;;;;;5055181;28;20045;-70
2022/06/05 08:34:09;;;;;;;9.57;8.57;;;23.10;99.90;;;;;;5054099;28;20076;-69
2022/06/05 08:36:36;;;;;;;9.52;8.63;;;23.00;99.90;;;;;;5055194;28;20032;-70
2022/06/05 08:42:28;;;;;;;8.50;7.80;;;23.60;99.90;;;;;;5054691;28;20041;-69
2022/06/05 08:44:59;;;;;;;8.95;8.05;;;24.20;99.90;;;;;;5054910;28;20126;-70
2022/06/05 08:47:33;;;;;;;8.77;8.00;;;24.90;99.90;;;;;;5055000;28;20387;-70
2022/06/05 08:50:22;;;;;;;8.13;7.45;;;25.30;99.90;;;;;;5037075;28;20115;-69
2022/06/05 08:58:23;;;;;;;8.18;7.28;;;27.30;99.30;;;;;;5111116;27;20376;-71
2022/06/05 09:00:52;;;;;;;6.75;6.25;;;27.70;97.30;;;;;;5111091;28;20482;-71
2022/06/05 09:03:28;;;;;;;8.20;7.50;;;27.80;97.50;;;;;;5110960;28;20028;-71
2022/06/05 09:06:02;;;;;;;10.30;7.80;;;27.20;95.70;;;;;;5110940;28;20024;-71
2022/06/05 09:08:31;;;;;;;8.88;7.80;;;26.00;97.60;;;;;;5109650;28;20055;-72
2022/06/05 09:11:12;;;;;;;10.05;7.28;;;25.60;99.00;;;;;;5109703;28;20052;-71
2022/06/05 09:13:54;;;;;;;9.45;8.48;;;25.50;99.90;;;;;;5111011;28;20042;-71
2022/06/05 09:16:25;;;;;;;8.98;8.10;;;25.30;99.70;;;;;;5109495;28;20035;-71
2022/06/05 09:18:52;;;;;;;8.90;8.10;;;25.00;99.90;;;;;;5110777;28;20027;-71
2022/06/05 09:21:24;;;;;;;9.18;8.35;;;25.10;99.90;;;;;;5109518;28;20024;-71
2022/06/05 09:24:15;;;;;;;10.15;9.18;;;24.40;99.90;;;;;;5109430;28;20481;-71
2022/06/05 09:26:43;;;;;;;9.52;8.50;;;23.80;99.90;;;;;;5110556;28;20028;-71
2022/06/05 09:29:26;;;;;;;9.40;8.50;;;23.70;99.90;;;;;;5109349;28;20393;-71
2022/06/05 09:32:04;;;;;;;9.82;9.02;;;23.90;99.90;;;;;;5109435;28;20023;-71
2022/06/05 09:34:51;;;;;;;9.02;8.13;;;23.90;99.90;;;;;;5109427;28;20035;-71
2022/06/05 09:37:26;;;;;;;9.35;8.45;;;23.90;99.90;;;;;;5108998;28;20024;-71
2022/06/05 09:39:57;;;;;;;10.07;9.13;;;23.60;99.90;;;;;;5109127;28;20030;-71
2022/06/05 09:45:40;;;;;;;11.00;8.35;;;23.50;99.90;;;;;;5111136;27;20434;-71
2022/06/05 09:50:57;;;;;;;10.82;8.40;;;24.40;99.90;;;;;;5091395;28;20428;-73
2022/06/05 09:53:39;;;;;;;11.32;8.73;;;24.50;99.90;;;;;;5089854;28;20478;-73
2022/06/05 09:59:21;;;;;;;9.73;8.80;;;24.40;99.90;;;;;;5070706;28;20353;-71
2022/06/05 10:01:50;;;;;;;10.25;9.25;;;23.80;99.90;;;;;;5069367;28;20067;-71
2022/06/05 10:04:16;;;;;;;10.57;8.73;;;23.30;99.90;;;;;;5052953;28;20023;-71
2022/06/05 10:06:48;;;;;;;9.35;8.45;;;23.30;99.90;;;;;;5070367;28;20386;-71
2022/06/05 10:09:19;;;;;;;9.17;8.37;;;23.20;99.90;;;;;;5069069;28;20024;-71
2022/06/05 10:12:07;;;;;;;9.20;8.30;;;23.30;99.90;;;;;;5070364;28;20670;-72
2022/06/05 10:14:59;;;;;;;8.95;8.15;;;23.40;99.90;;;;;;5070298;28;20016;-71
2022/06/05 10:17:47;;;;;;;9.10;8.20;;;23.70;99.90;;;;;;5070058;28;20028;-72
2022/06/05 10:20:44;;;;;;;9.57;8.57;;;24.20;99.90;;;;;;5070156;28;20016;-71
2022/06/05 10:23:48;;;;;;;8.85;8.10;;;24.20;99.90;;;;;;5069900;28;20036;-71
2022/06/05 10:26:33;;;;;;;9.35;8.10;;;24.40;99.90;;;;;;5068709;28;20510;-71
2022/06/05 10:29:14;;;;;;;8.98;8.10;;;24.30;99.90;;;;;;5068701;28;20036;-71
2022/06/05 10:31:50;;;;;;;10.95;8.10;;;24.10;99.90;;;;;;5068860;28;20024;-71
2022/06/05 10:34:56;;;;;;;9.48;8.68;;;23.80;99.90;;;;;;5069882;28;20021;-71
2022/06/05 10:37:35;;;;;;;9.82;8.63;;;23.40;99.90;;;;;;5069576;28;20501;-71
2022/06/05 10:40:41;;;;;;;9.63;8.82;;;23.10;99.90;;;;;;5051835;28;20021;-71
2022/06/05 10:43:25;;;;;;;9.43;8.57;;;22.80;99.90;;;;;;5069685;28;20497;-71
2022/06/05 10:45:58;;;;;;;11.05;9.07;;;22.60;99.90;;;;;;5068453;28;20013;-71
2022/06/05 10:48:28;;;;;;;;;;;22.40;99.90;;;;;;5069970;28;20112;-71
2022/06/05 10:51:09;;;;;;;10.13;9.25;;;22.40;99.90;;;;;;5068286;28;19905;-70
2022/06/05 10:54:00;;;;;;;10.27;9.27;;;22.20;99.90;;;;;;5051673;28;20174;-71
2022/06/05 10:56:50;;;;;;;11.43;10.27;;;22.10;99.90;;;;;;5051431;28;20024;-71
2022/06/05 10:59:42;;;;;;;11.20;10.07;;;21.90;99.90;;;;;;5069273;28;20033;-70
2022/06/05 11:02:43;;;;;;;11.48;10.38;;;21.70;99.90;;;;;;5069173;28;20033;-71
2022/06/05 11:05:24;;;;;;;11.15;10.10;;;21.50;99.90;;;;;;5069018;28;20092;-71
2022/06/05 11:08:20;;;;;;;10.98;9.85;;;21.40;99.90;;;;;;5051320;28;20032;-71
2022/06/05 11:14:30;;;;;;;11.20;9.98;;;21.40;99.90;;;;;;5054862;28;20025;-71
2022/06/05 11:17:22;;;;;;;10.18;9.25;;;21.60;99.90;;;;;;5055724;28;20368;-71
2022/06/05 11:20:02;;;;;;;9.30;8.43;;;21.80;99.90;;;;;;5055719;28;20017;-71
2022/06/05 11:22:29;;;;;;;8.25;7.53;;;21.80;99.90;;;;;;5055616;28;20025;-71
2022/06/05 11:25:10;;;;;;;9.45;8.32;;;21.80;99.90;;;;;;5055757;28;20021;-70
2022/06/05 11:27:59;;;;;;;9.23;8.35;;;21.50;99.90;;;;;;5055801;28;20471;-70
2022/06/05 11:30:34;;;;;;;10.10;9.23;;;21.10;99.90;;;;;;5055772;28;20032;-70
2022/06/05 11:33:23;;;;;;;9.88;8.98;;;20.80;99.90;;;;;;5055498;28;20032;-70
2022/06/05 11:36:29;;;;;;;11.77;10.68;;;20.60;99.90;;;;;;5055405;28;20035;-69
2022/06/05 11:39:34;;;;;;;13.93;12.45;;;20.40;99.90;;;;;;5055328;28;20033;-70
2022/06/05 11:42:30;;;;;;;15.18;13.77;;;20.30;99.90;;;;;;5055285;28;20082;-71
2022/06/05 11:45:25;;;;;;;15.45;13.95;;;20.30;99.90;;;;;;5055345;28;20467;-70
2022/06/05 11:48:08;;;;;;;15.15;13.80;;;20.40;99.90;;;;;;5055332;28;20055;-70
2022/06/05 11:50:44;;;;;;;14.63;13.23;;;20.50;99.90;;;;;;5038059;28;20056;-70
2022/06/05 11:53:22;;;;;;;15.98;14.27;;;20.50;99.90;;;;;;5055311;28;20025;-70
2022/06/05 11:56:22;;;;;;;16.38;13.50;;;20.40;99.90;;;;;;5055241;28;20099;-70
2022/06/05 11:59:00;;;;;;;15.20;13.35;;;20.50;99.90;;;;;;5054846;28;20072;-70
2022/06/05 12:01:30;;;;;;;12.43;11.23;;;20.60;99.90;;;;;;5055064;28;20391;-71
2022/06/05 12:04:24;;;;;;;13.15;11.90;;;20.50;99.90;;;;;;5053766;28;20025;-71
2022/06/05 12:06:55;;;;;;;13.27;11.70;;;20.50;99.90;;;;;;5054963;28;20025;-70
2022/06/05 12:09:25;;;;;;;13.30;12.02;;;20.60;99.90;;;;;;5037156;28;20032;-71
2022/06/05 12:12:06;;;;;;;13.93;12.55;;;20.50;99.90;;;;;;5053584;28;20040;-70
2022/06/05 12:14:38;;;;;;;13.80;12.60;;;20.50;99.90;;;;;;5054607;28;20025;-70
2022/06/05 12:17:29;;;;;;;13.90;12.30;;;20.40;99.90;;;;;;5054751;28;20036;-69
2022/06/05 12:20:24;;;;;;;13.40;12.18;;;20.40;99.90;;;;;;5054120;28;20471;-70
2022/06/05 12:23:01;;;;;;;13.98;12.55;;;20.50;99.90;;;;;;5054473;28;20108;-70
2022/06/05 12:25:38;;;;;;;14.93;13.40;;;20.60;99.90;;;;;;5054324;28;20025;-70
2022/06/05 12:28:15;;;;;;;14.70;13.30;;;20.70;99.90;;;;;;5053298;28;20074;-69
2022/06/05 12:31:03;;;;;;;14.45;13.00;;;20.90;99.90;;;;;;5036605;28;20107;-70
2022/06/05 12:33:41;;;;;;;13.55;12.25;;;21.00;99.90;;;;;;5054270;28;20518;-70
2022/06/05 12:36:17;;;;;;;14.10;12.80;;;21.00;99.90;;;;;;5053249;28;20036;-70
2022/06/05 12:39:04;;;;;;;14.68;13.15;;;21.00;99.90;;;;;;5054244;28;20072;-69
2022/06/05 12:41:56;;;;;;;13.73;12.10;;;21.20;99.90;;;;;;5052876;28;20021;-69
2022/06/05 12:44:27;;;;;;;13.50;12.32;;;21.40;99.90;;;;;;5054186;28;20028;-70
2022/06/05 12:47:13;;;;;;;12.82;11.73;;;21.50;99.90;;;;;;5054124;28;20086;-70
2022/06/05 12:52:58;;;;;;;13.63;12.38;;;21.50;99.90;;;;;;5070673;28;20379;-70
2022/06/05 12:55:45;;;;;;;12.35;11.13;;;21.60;99.90;;;;;;5070453;28;20024;-70
2022/06/05 12:58:33;;;;;;;11.27;10.27;;;21.60;99.90;;;;;;5069080;28;20017;-70
2022/06/05 13:01:05;;;;;;;12.70;11.40;;;21.50;99.90;;;;;;5069366;28;20027;-70
2022/06/05 13:03:48;;;;;;;11.75;10.75;;;21.50;99.90;;;;;;5069204;28;20032;-70
2022/06/05 13:06:37;;;;;;;11.73;10.57;;;21.40;99.90;;;;;;5069135;28;20442;-70
2022/06/05 13:09:16;;;;;;;12.85;11.48;;;21.60;99.90;;;;;;5070180;28;20486;-70
2022/06/05 13:11:49;;;;;;;12.63;11.20;;;21.40;99.90;;;;;;5070193;28;20024;-70
2022/06/05 13:14:40;;;;;;;12.32;11.15;;;21.50;99.90;;;;;;5068985;28;20025;-70
2022/06/05 13:17:19;;;;;;;11.73;10.57;;;21.30;99.90;;;;;;5068792;28;20116;-70
2022/06/05 13:19:58;;;;;;;12.40;11.02;;;21.40;99.90;;;;;;5068754;28;20021;-70
2022/06/05 13:22:34;;;;;;;12.00;10.73;;;21.50;99.90;;;;;;5068874;28;20407;-70
2022/06/05 13:25:14;;;;;;;12.40;11.20;;;21.40;99.90;;;;;;5069938;28;20021;-70
2022/06/05 13:28:04;;;;;;;12.32;11.30;;;21.50;99.90;;;;;;5068701;28;20108;-70
2022/06/05 13:30:34;;;;;;;12.65;11.45;;;21.30;99.90;;;;;;5069736;28;20501;-70
2022/06/05 13:33:26;;;;;;;12.77;11.60;;;21.40;99.90;;;;;;5068647;28;20025;-70
2022/06/05 13:38:51;;;;;;;12.15;11.05;;;21.50;99.90;;;;;;5090850;28;20133;-69
2022/06/05 13:41:32;;;;;;;13.85;11.73;;;21.80;99.90;;;;;;5090592;28;20119;-69
2022/06/05 13:44:15;;;;;;;12.88;11.65;;;21.70;99.90;;;;;;5074028;28;20028;-69
2022/06/05 13:46:56;;;;;;;12.48;11.30;;;21.80;99.90;;;;;;5089536;28;20031;-69
2022/06/05 13:49:39;;;;;;;12.25;11.20;;;21.90;99.90;;;;;;5089790;28;20024;-69
2022/06/05 13:52:20;;;;;;;13.23;11.75;;;22.00;99.90;;;;;;5090630;28;20393;-69